sensor_id;sensor_type;location;lat;lon;timestamp;P1;durP1;ratioP1;P2;durP2;ratioP2
60430;SDS011;46285;45.122;20.726;2022-08-11T00:01:36;5.90;;;3.20;;
60430;SDS011;46285;45.122;20.726;2022-08-11T00:04:03;5.93;;;2.78;;
60430;SDS011;46285;45.122;20.726;2022-08-11T00:06:30;8.03;;;2.70;;
60430;SDS011;46285;45.122;20.726;2022-08-11T00:08:57;7.85;;;2.88;;
60430;SDS011;46285;45.122;20.726;2022-08-11T00:11:57;5.45;;;2.88;;
60430;SDS011;46285;45.122;20.726;2022-08-11T00:14:18;8.32;;;2.83;;
60430;SDS011;46285;45.122;20.726;2022-08-11T00:19:21;5.50;;;2.72;;
60430;SDS011;46285;45.122;20.726;2022-08-11T00:21:48;5.72;;;2.80;;
60430;SDS011;46285;45.122;20.726;2022-08-11T00:24:14;8.25;;;3.22;;
60430;SDS011;46285;45.122;20.726;2022-08-11T00:26:45;6.30;;;2.85;;
60430;SDS011;46285;45.122;20.726;2022-08-11T00:29:12;6.18;;;2.80;;
60430;SDS011;46285;45.122;20.726;2022-08-11T00:31:42;6.40;;;3.15;;
60430;SDS011;46285;45.122;20.726;2022-08-11T00:34:11;7.85;;;3.15;;
60430;SDS011;46285;45.122;20.726;2022-08-11T00:36:42;6.07;;;2.88;;
60430;SDS011;46285;45.122;20.726;2022-08-11T00:39:10;7.20;;;3.20;;
60430;SDS011;46285;45.122;20.726;2022-08-11T00:41:41;7.60;;;3.30;;
60430;SDS011;46285;45.122;20.726;2022-08-11T00:44:26;6.93;;;2.92;;
60430;SDS011;46285;45.122;20.726;2022-08-11T00:47:00;6.22;;;2.60;;
60430;SDS011;46285;45.122;20.726;2022-08-11T00:57:14;7.25;;;2.88;;
60430;SDS011;46285;45.122;20.726;2022-08-11T01:02:25;6.40;;;2.38;;
60430;SDS011;46285;45.122;20.726;2022-08-11T01:05:10;5.30;;;2.33;;
60430;SDS011;46285;45.122;20.726;2022-08-11T01:16:05;6.13;;;2.67;;
60430;SDS011;46285;45.122;20.726;2022-08-11T01:21:08;6.03;;;2.38;;
60430;SDS011;46285;45.122;20.726;2022-08-11T01:36:34;4.28;;;1.80;;
60430;SDS011;46285;45.122;20.726;2022-08-11T01:41:41;5.43;;;2.30;;
60430;SDS011;46285;45.122;20.726;2022-08-11T01:50:13;5.13;;;1.90;;
60430;SDS011;46285;45.122;20.726;2022-08-11T02:00:53;7.72;;;3.42;;
60430;SDS011;46285;45.122;20.726;2022-08-11T02:03:26;5.47;;;2.38;;
60430;SDS011;46285;45.122;20.726;2022-08-11T02:06:09;4.63;;;2.15;;
60430;SDS011;46285;45.122;20.726;2022-08-11T02:09:12;8.45;;;2.42;;
60430;SDS011;46285;45.122;20.726;2022-08-11T02:11:41;10.10;;;2.15;;
60430;SDS011;46285;45.122;20.726;2022-08-11T02:22:04;7.32;;;2.40;;
60430;SDS011;46285;45.122;20.726;2022-08-11T02:24:59;5.60;;;2.28;;
60430;SDS011;46285;45.122;20.726;2022-08-11T02:27:28;4.43;;;2.00;;
60430;SDS011;46285;45.122;20.726;2022-08-11T02:30:04;5.03;;;2.20;;
60430;SDS011;46285;45.122;20.726;2022-08-11T02:32:44;7.40;;;2.92;;
60430;SDS011;46285;45.122;20.726;2022-08-11T02:40:33;6.55;;;2.20;;
60430;SDS011;46285;45.122;20.726;2022-08-11T02:45:38;6.75;;;2.88;;
60430;SDS011;46285;45.122;20.726;2022-08-11T02:53:56;7.18;;;3.00;;
60430;SDS011;46285;45.122;20.726;2022-08-11T02:59:06;5.22;;;2.63;;
60430;SDS011;46285;45.122;20.726;2022-08-11T03:01:55;6.78;;;3.90;;
60430;SDS011;46285;45.122;20.726;2022-08-11T03:04:36;9.32;;;3.47;;
60430;SDS011;46285;45.122;20.726;2022-08-11T03:07:16;7.82;;;3.40;;
60430;SDS011;46285;45.122;20.726;2022-08-11T03:09:49;8.00;;;3.75;;
60430;SDS011;46285;45.122;20.726;2022-08-11T03:12:23;6.53;;;2.75;;
60430;SDS011;46285;45.122;20.726;2022-08-11T03:15:15;8.48;;;3.47;;
60430;SDS011;46285;45.122;20.726;2022-08-11T03:18:03;6.95;;;3.63;;
60430;SDS011;46285;45.122;20.726;2022-08-11T03:23:27;7.88;;;3.40;;
60430;SDS011;46285;45.122;20.726;2022-08-11T03:31:19;8.40;;;3.80;;
60430;SDS011;46285;45.122;20.726;2022-08-11T03:33:53;6.72;;;4.03;;
60430;SDS011;46285;45.122;20.726;2022-08-11T03:39:17;7.82;;;3.83;;
60430;SDS011;46285;45.122;20.726;2022-08-11T03:41:52;6.10;;;3.30;;
60430;SDS011;46285;45.122;20.726;2022-08-11T03:52:06;9.50;;;4.63;;
60430;SDS011;46285;45.122;20.726;2022-08-11T04:08:24;10.20;;;6.00;;
60430;SDS011;46285;45.122;20.726;2022-08-11T04:13:34;7.30;;;3.33;;
60430;SDS011;46285;45.122;20.726;2022-08-11T04:24:03;9.75;;;4.00;;
60430;SDS011;46285;45.122;20.726;2022-08-11T04:34:34;6.38;;;2.80;;
60430;SDS011;46285;45.122;20.726;2022-08-11T04:47:59;7.25;;;2.70;;
60430;SDS011;46285;45.122;20.726;2022-08-11T04:53:49;6.25;;;1.88;;
60430;SDS011;46285;45.122;20.726;2022-08-11T04:56:38;7.55;;;3.22;;
60430;SDS011;46285;45.122;20.726;2022-08-11T04:59:34;6.18;;;2.05;;
60430;SDS011;46285;45.122;20.726;2022-08-11T05:05:20;5.20;;;2.30;;
60430;SDS011;46285;45.122;20.726;2022-08-11T05:08:17;5.03;;;2.10;;
60430;SDS011;46285;45.122;20.726;2022-08-11T05:13:35;7.55;;;2.40;;
60430;SDS011;46285;45.122;20.726;2022-08-11T05:16:30;6.50;;;2.30;;
60430;SDS011;46285;45.122;20.726;2022-08-11T05:19:17;8.25;;;2.30;;
60430;SDS011;46285;45.122;20.726;2022-08-11T05:22:03;6.57;;;2.38;;
60430;SDS011;46285;45.122;20.726;2022-08-11T05:24:49;5.85;;;1.95;;
60430;SDS011;46285;45.122;20.726;2022-08-11T05:27:37;7.07;;;2.40;;
60430;SDS011;46285;45.122;20.726;2022-08-11T05:30:26;7.40;;;2.40;;
60430;SDS011;46285;45.122;20.726;2022-08-11T05:33:24;7.15;;;2.38;;
60430;SDS011;46285;45.122;20.726;2022-08-11T05:36:20;5.45;;;2.25;;
60430;SDS011;46285;45.122;20.726;2022-08-11T05:38:59;14.63;;;2.97;;
60430;SDS011;46285;45.122;20.726;2022-08-11T05:41:45;6.47;;;2.63;;
60430;SDS011;46285;45.122;20.726;2022-08-11T05:44:31;7.40;;;2.15;;
60430;SDS011;46285;45.122;20.726;2022-08-11T05:47:23;7.63;;;2.22;;
60430;SDS011;46285;45.122;20.726;2022-08-11T05:50:10;12.55;;;2.05;;
60430;SDS011;46285;45.122;20.726;2022-08-11T05:52:55;5.78;;;2.05;;
60430;SDS011;46285;45.122;20.726;2022-08-11T05:55:43;8.93;;;2.15;;
60430;SDS011;46285;45.122;20.726;2022-08-11T05:58:36;6.07;;;2.05;;
60430;SDS011;46285;45.122;20.726;2022-08-11T06:01:04;7.22;;;2.15;;
60430;SDS011;46285;45.122;20.726;2022-08-11T06:03:31;8.50;;;3.42;;
60430;SDS011;46285;45.122;20.726;2022-08-11T06:06:19;8.00;;;2.13;;
60430;SDS011;46285;45.122;20.726;2022-08-11T06:08:46;6.57;;;1.98;;
60430;SDS011;46285;45.122;20.726;2022-08-11T06:11:12;5.40;;;2.05;;
60430;SDS011;46285;45.122;20.726;2022-08-11T06:13:43;13.85;;;2.22;;
60430;SDS011;46285;45.122;20.726;2022-08-11T06:16:09;14.63;;;2.15;;
60430;SDS011;46285;45.122;20.726;2022-08-11T06:18:36;8.38;;;2.22;;
60430;SDS011;46285;45.122;20.726;2022-08-11T06:21:07;5.72;;;1.63;;
60430;SDS011;46285;45.122;20.726;2022-08-11T06:23:34;8.38;;;2.10;;
60430;SDS011;46285;45.122;20.726;2022-08-11T06:26:06;8.63;;;1.90;;
60430;SDS011;46285;45.122;20.726;2022-08-11T06:28:35;7.70;;;1.67;;
60430;SDS011;46285;45.122;20.726;2022-08-11T06:31:11;10.85;;;2.17;;
60430;SDS011;46285;45.122;20.726;2022-08-11T06:33:52;4.45;;;2.10;;
60430;SDS011;46285;45.122;20.726;2022-08-11T06:36:33;5.82;;;1.77;;
60430;SDS011;46285;45.122;20.726;2022-08-11T06:41:32;4.20;;;1.52;;
60430;SDS011;46285;45.122;20.726;2022-08-11T06:44:05;4.03;;;1.50;;
60430;SDS011;46285;45.122;20.726;2022-08-11T06:46:35;5.82;;;1.50;;
60430;SDS011;46285;45.122;20.726;2022-08-11T06:49:05;4.82;;;1.70;;
60430;SDS011;46285;45.122;20.726;2022-08-11T06:51:51;4.28;;;1.60;;
60430;SDS011;46285;45.122;20.726;2022-08-11T06:54:19;9.20;;;2.08;;
60430;SDS011;46285;45.122;20.726;2022-08-11T06:59:31;4.60;;;1.55;;
60430;SDS011;46285;45.122;20.726;2022-08-11T07:02:29;8.68;;;1.67;;
60430;SDS011;46285;45.122;20.726;2022-08-11T07:07:47;3.63;;;1.20;;
60430;SDS011;46285;45.122;20.726;2022-08-11T07:13:39;7.57;;;2.00;;
60430;SDS011;46285;45.122;20.726;2022-08-11T07:16:25;7.90;;;1.83;;
60430;SDS011;46285;45.122;20.726;2022-08-11T07:18:54;5.53;;;1.50;;
60430;SDS011;46285;45.122;20.726;2022-08-11T07:21:39;6.43;;;1.52;;
60430;SDS011;46285;45.122;20.726;2022-08-11T07:24:26;3.47;;;1.08;;
60430;SDS011;46285;45.122;20.726;2022-08-11T07:27:16;4.55;;;1.50;;
60430;SDS011;46285;45.122;20.726;2022-08-11T07:30:08;4.03;;;1.10;;
60430;SDS011;46285;45.122;20.726;2022-08-11T07:32:47;4.07;;;1.23;;
60430;SDS011;46285;45.122;20.726;2022-08-11T07:35:15;4.20;;;1.42;;
60430;SDS011;46285;45.122;20.726;2022-08-11T07:37:44;4.40;;;1.13;;
60430;SDS011;46285;45.122;20.726;2022-08-11T07:40:12;9.20;;;1.77;;
60430;SDS011;46285;45.122;20.726;2022-08-11T07:42:39;3.67;;;1.30;;
60430;SDS011;46285;45.122;20.726;2022-08-11T07:45:10;6.22;;;1.60;;
60430;SDS011;46285;45.122;20.726;2022-08-11T07:47:55;3.20;;;1.15;;
60430;SDS011;46285;45.122;20.726;2022-08-11T07:50:40;5.30;;;1.23;;
60430;SDS011;46285;45.122;20.726;2022-08-11T07:53:26;8.02;;;1.23;;
60430;SDS011;46285;45.122;20.726;2022-08-11T07:55:53;3.50;;;1.13;;
60430;SDS011;46285;45.122;20.726;2022-08-11T07:58:21;3.80;;;1.10;;
60430;SDS011;46285;45.122;20.726;2022-08-11T08:01:06;5.10;;;1.05;;
60430;SDS011;46285;45.122;20.726;2022-08-11T08:03:51;3.65;;;1.45;;
60430;SDS011;46285;45.122;20.726;2022-08-11T08:06:36;6.63;;;1.45;;
60430;SDS011;46285;45.122;20.726;2022-08-11T08:09:22;2.35;;;0.88;;
60430;SDS011;46285;45.122;20.726;2022-08-11T08:12:08;6.47;;;1.98;;
60430;SDS011;46285;45.122;20.726;2022-08-11T08:14:53;5.68;;;1.48;;
60430;SDS011;46285;45.122;20.726;2022-08-11T08:17:39;3.67;;;1.10;;
60430;SDS011;46285;45.122;20.726;2022-08-11T08:20:36;2.85;;;1.00;;
60430;SDS011;46285;45.122;20.726;2022-08-11T08:23:02;2.67;;;1.00;;
60430;SDS011;46285;45.122;20.726;2022-08-11T08:25:31;5.57;;;1.20;;
60430;SDS011;46285;45.122;20.726;2022-08-11T08:27:59;6.15;;;1.63;;
60430;SDS011;46285;45.122;20.726;2022-08-11T08:30:26;5.78;;;1.20;;
60430;SDS011;46285;45.122;20.726;2022-08-11T08:33:32;3.53;;;1.25;;
60430;SDS011;46285;45.122;20.726;2022-08-11T08:36:00;3.42;;;1.10;;
60430;SDS011;46285;45.122;20.726;2022-08-11T08:38:40;3.00;;;1.08;;
60430;SDS011;46285;45.122;20.726;2022-08-11T08:41:06;3.30;;;1.13;;
60430;SDS011;46285;45.122;20.726;2022-08-11T08:43:33;3.38;;;1.25;;
60430;SDS011;46285;45.122;20.726;2022-08-11T08:46:00;3.83;;;1.20;;
60430;SDS011;46285;45.122;20.726;2022-08-11T08:48:27;2.65;;;0.90;;
60430;SDS011;46285;45.122;20.726;2022-08-11T08:50:56;3.70;;;1.15;;
60430;SDS011;46285;45.122;20.726;2022-08-11T08:53:45;3.13;;;1.02;;
60430;SDS011;46285;45.122;20.726;2022-08-11T08:56:13;3.88;;;1.17;;
60430;SDS011;46285;45.122;20.726;2022-08-11T08:58:39;4.70;;;1.33;;
60430;SDS011;46285;45.122;20.726;2022-08-11T09:03:35;5.78;;;1.50;;
60430;SDS011;46285;45.122;20.726;2022-08-11T09:06:02;3.97;;;1.20;;
60430;SDS011;46285;45.122;20.726;2022-08-11T09:08:30;6.03;;;1.45;;
60430;SDS011;46285;45.122;20.726;2022-08-11T09:10:56;6.03;;;1.63;;
60430;SDS011;46285;45.122;20.726;2022-08-11T09:13:42;3.55;;;1.35;;
60430;SDS011;46285;45.122;20.726;2022-08-11T09:16:10;4.85;;;1.20;;
60430;SDS011;46285;45.122;20.726;2022-08-11T09:18:37;2.95;;;1.20;;
60430;SDS011;46285;45.122;20.726;2022-08-11T09:21:04;3.83;;;1.20;;
60430;SDS011;46285;45.122;20.726;2022-08-11T09:23:31;9.63;;;1.88;;
60430;SDS011;46285;45.122;20.726;2022-08-11T09:26:16;4.57;;;1.60;;
60430;SDS011;46285;45.122;20.726;2022-08-11T09:29:02;4.15;;;1.63;;
60430;SDS011;46285;45.122;20.726;2022-08-11T09:31:31;9.00;;;2.60;;
60430;SDS011;46285;45.122;20.726;2022-08-11T09:33:58;4.40;;;1.60;;
60430;SDS011;46285;45.122;20.726;2022-08-11T09:36:25;4.97;;;1.30;;
60430;SDS011;46285;45.122;20.726;2022-08-11T09:39:11;4.22;;;1.35;;
60430;SDS011;46285;45.122;20.726;2022-08-11T09:41:56;2.70;;;1.23;;
60430;SDS011;46285;45.122;20.726;2022-08-11T09:44:22;4.63;;;1.50;;
60430;SDS011;46285;45.122;20.726;2022-08-11T09:47:07;4.65;;;1.88;;
60430;SDS011;46285;45.122;20.726;2022-08-11T09:49:41;11.75;;;1.60;;
60430;SDS011;46285;45.122;20.726;2022-08-11T09:52:08;6.85;;;1.48;;
60430;SDS011;46285;45.122;20.726;2022-08-11T09:54:34;6.47;;;1.58;;
60430;SDS011;46285;45.122;20.726;2022-08-11T09:57:01;6.32;;;1.38;;
60430;SDS011;46285;45.122;20.726;2022-08-11T09:59:46;7.15;;;1.40;;
60430;SDS011;46285;45.122;20.726;2022-08-11T10:02:12;7.18;;;1.80;;
60430;SDS011;46285;45.122;20.726;2022-08-11T10:04:39;4.38;;;1.33;;
60430;SDS011;46285;45.122;20.726;2022-08-11T10:07:06;4.53;;;1.70;;
60430;SDS011;46285;45.122;20.726;2022-08-11T10:09:35;4.10;;;1.20;;
60430;SDS011;46285;45.122;20.726;2022-08-11T10:12:04;4.55;;;1.55;;
60430;SDS011;46285;45.122;20.726;2022-08-11T10:14:31;4.88;;;1.40;;
60430;SDS011;46285;45.122;20.726;2022-08-11T10:17:17;6.07;;;1.58;;
60430;SDS011;46285;45.122;20.726;2022-08-11T10:19:46;4.30;;;1.35;;
60430;SDS011;46285;45.122;20.726;2022-08-11T10:22:13;15.23;;;3.45;;
60430;SDS011;46285;45.122;20.726;2022-08-11T10:24:58;5.88;;;1.38;;
60430;SDS011;46285;45.122;20.726;2022-08-11T10:27:44;3.53;;;1.30;;
60430;SDS011;46285;45.122;20.726;2022-08-11T10:30:15;4.95;;;1.25;;
60430;SDS011;46285;45.122;20.726;2022-08-11T10:33:00;4.32;;;1.42;;
60430;SDS011;46285;45.122;20.726;2022-08-11T10:35:46;10.40;;;1.77;;
60430;SDS011;46285;45.122;20.726;2022-08-11T10:38:12;4.03;;;1.20;;
60430;SDS011;46285;45.122;20.726;2022-08-11T10:40:40;4.70;;;1.88;;
60430;SDS011;46285;45.122;20.726;2022-08-11T10:43:10;3.80;;;1.33;;
60430;SDS011;46285;45.122;20.726;2022-08-11T10:45:41;4.03;;;1.75;;
60430;SDS011;46285;45.122;20.726;2022-08-11T10:48:28;7.00;;;2.10;;
60430;SDS011;46285;45.122;20.726;2022-08-11T10:50:55;4.70;;;1.33;;
60430;SDS011;46285;45.122;20.726;2022-08-11T10:53:43;4.25;;;1.45;;
60430;SDS011;46285;45.122;20.726;2022-08-11T10:56:28;5.13;;;1.65;;
60430;SDS011;46285;45.122;20.726;2022-08-11T10:59:14;4.97;;;1.55;;
60430;SDS011;46285;45.122;20.726;2022-08-11T11:01:41;4.15;;;1.45;;
60430;SDS011;46285;45.122;20.726;2022-08-11T11:09:28;5.00;;;1.60;;
60430;SDS011;46285;45.122;20.726;2022-08-11T11:12:01;4.90;;;1.50;;
60430;SDS011;46285;45.122;20.726;2022-08-11T11:14:47;7.22;;;1.58;;
60430;SDS011;46285;45.122;20.726;2022-08-11T11:17:42;4.93;;;1.50;;
60430;SDS011;46285;45.122;20.726;2022-08-11T11:20:44;4.85;;;1.63;;
60430;SDS011;46285;45.122;20.726;2022-08-11T11:29:13;5.13;;;1.85;;
60430;SDS011;46285;45.122;20.726;2022-08-11T11:36:54;10.20;;;1.65;;
60430;SDS011;46285;45.122;20.726;2022-08-11T11:39:30;4.18;;;1.30;;
60430;SDS011;46285;45.122;20.726;2022-08-11T11:41:58;5.10;;;1.45;;
60430;SDS011;46285;45.122;20.726;2022-08-11T11:44:25;4.13;;;1.50;;
60430;SDS011;46285;45.122;20.726;2022-08-11T11:46:52;3.67;;;1.25;;
60430;SDS011;46285;45.122;20.726;2022-08-11T11:49:19;4.65;;;1.65;;
60430;SDS011;46285;45.122;20.726;2022-08-11T11:51:47;4.75;;;1.27;;
60430;SDS011;46285;45.122;20.726;2022-08-11T11:54:18;4.63;;;1.70;;
60430;SDS011;46285;45.122;20.726;2022-08-11T11:56:46;4.03;;;1.50;;
60430;SDS011;46285;45.122;20.726;2022-08-11T11:59:12;5.22;;;1.60;;
60430;SDS011;46285;45.122;20.726;2022-08-11T12:01:58;6.35;;;1.40;;
60430;SDS011;46285;45.122;20.726;2022-08-11T12:04:24;4.53;;;1.20;;
60430;SDS011;46285;45.122;20.726;2022-08-11T12:06:51;5.30;;;1.38;;
60430;SDS011;46285;45.122;20.726;2022-08-11T12:09:38;3.85;;;1.17;;
60430;SDS011;46285;45.122;20.726;2022-08-11T12:12:05;5.03;;;1.48;;
60430;SDS011;46285;45.122;20.726;2022-08-11T12:14:50;4.53;;;1.27;;
60430;SDS011;46285;45.122;20.726;2022-08-11T12:17:17;6.30;;;2.35;;
60430;SDS011;46285;45.122;20.726;2022-08-11T12:19:43;5.27;;;1.40;;
60430;SDS011;46285;45.122;20.726;2022-08-11T12:22:09;7.22;;;1.77;;
60430;SDS011;46285;45.122;20.726;2022-08-11T12:24:54;7.13;;;1.70;;
60430;SDS011;46285;45.122;20.726;2022-08-11T12:27:39;3.65;;;1.40;;
60430;SDS011;46285;45.122;20.726;2022-08-11T12:30:06;6.43;;;1.15;;
60430;SDS011;46285;45.122;20.726;2022-08-11T12:34:59;4.47;;;1.60;;
60430;SDS011;46285;45.122;20.726;2022-08-11T12:37:33;3.50;;;1.55;;
60430;SDS011;46285;45.122;20.726;2022-08-11T12:40:01;4.70;;;1.45;;
60430;SDS011;46285;45.122;20.726;2022-08-11T12:42:46;6.63;;;1.70;;
60430;SDS011;46285;45.122;20.726;2022-08-11T12:45:31;5.18;;;1.50;;
60430;SDS011;46285;45.122;20.726;2022-08-11T12:48:09;4.65;;;1.23;;
60430;SDS011;46285;45.122;20.726;2022-08-11T12:50:57;6.78;;;1.67;;
60430;SDS011;46285;45.122;20.726;2022-08-11T12:53:45;5.63;;;1.30;;
60430;SDS011;46285;45.122;20.726;2022-08-11T12:56:16;5.75;;;1.50;;
60430;SDS011;46285;45.122;20.726;2022-08-11T12:59:02;8.38;;;2.13;;
60430;SDS011;46285;45.122;20.726;2022-08-11T13:01:48;4.03;;;1.55;;
60430;SDS011;46285;45.122;20.726;2022-08-11T13:04:33;5.70;;;1.45;;
60430;SDS011;46285;45.122;20.726;2022-08-11T13:07:18;4.35;;;1.23;;
60430;SDS011;46285;45.122;20.726;2022-08-11T13:09:44;5.50;;;1.25;;
60430;SDS011;46285;45.122;20.726;2022-08-11T13:12:11;4.70;;;1.40;;
60430;SDS011;46285;45.122;20.726;2022-08-11T13:14:56;10.15;;;1.40;;
60430;SDS011;46285;45.122;20.726;2022-08-11T13:19:50;3.70;;;1.30;;
60430;SDS011;46285;45.122;20.726;2022-08-11T13:22:18;3.42;;;1.13;;
60430;SDS011;46285;45.122;20.726;2022-08-11T13:24:45;3.28;;;0.98;;
60430;SDS011;46285;45.122;20.726;2022-08-11T13:27:12;3.55;;;1.00;;
60430;SDS011;46285;45.122;20.726;2022-08-11T13:29:41;9.95;;;1.30;;
60430;SDS011;46285;45.122;20.726;2022-08-11T13:32:11;3.72;;;1.30;;
60430;SDS011;46285;45.122;20.726;2022-08-11T13:34:38;4.25;;;1.50;;
60430;SDS011;46285;45.122;20.726;2022-08-11T13:37:07;7.07;;;1.40;;
60430;SDS011;46285;45.122;20.726;2022-08-11T13:42:00;3.70;;;1.15;;
60430;SDS011;46285;45.122;20.726;2022-08-11T13:44:30;3.00;;;0.93;;
60430;SDS011;46285;45.122;20.726;2022-08-11T13:46:58;4.47;;;1.20;;
60430;SDS011;46285;45.122;20.726;2022-08-11T13:49:26;4.80;;;1.73;;
60430;SDS011;46285;45.122;20.726;2022-08-11T13:51:53;3.50;;;1.33;;
60430;SDS011;46285;45.122;20.726;2022-08-11T13:54:20;3.92;;;1.30;;
60430;SDS011;46285;45.122;20.726;2022-08-11T13:56:47;9.23;;;1.90;;
60430;SDS011;46285;45.122;20.726;2022-08-11T13:59:17;7.72;;;1.30;;
60430;SDS011;46285;45.122;20.726;2022-08-11T14:01:52;5.47;;;1.25;;
60430;SDS011;46285;45.122;20.726;2022-08-11T14:04:21;6.07;;;1.80;;
60430;SDS011;46285;45.122;20.726;2022-08-11T14:06:50;4.20;;;1.35;;
60430;SDS011;46285;45.122;20.726;2022-08-11T14:09:19;5.07;;;1.10;;
60430;SDS011;46285;45.122;20.726;2022-08-11T14:11:47;4.03;;;1.17;;
60430;SDS011;46285;45.122;20.726;2022-08-11T14:14:33;6.43;;;1.20;;
60430;SDS011;46285;45.122;20.726;2022-08-11T14:17:01;3.95;;;1.13;;
60430;SDS011;46285;45.122;20.726;2022-08-11T14:19:28;3.92;;;1.00;;
60430;SDS011;46285;45.122;20.726;2022-08-11T14:24:35;12.20;;;2.35;;
60430;SDS011;46285;45.122;20.726;2022-08-11T14:27:02;6.38;;;1.95;;
60430;SDS011;46285;45.122;20.726;2022-08-11T14:29:28;4.18;;;1.55;;
60430;SDS011;46285;45.122;20.726;2022-08-11T14:32:00;3.83;;;1.35;;
60430;SDS011;46285;45.122;20.726;2022-08-11T14:34:27;4.30;;;1.55;;
60430;SDS011;46285;45.122;20.726;2022-08-11T14:39:23;6.20;;;2.70;;
60430;SDS011;46285;45.122;20.726;2022-08-11T14:41:59;6.40;;;1.40;;
60430;SDS011;46285;45.122;20.726;2022-08-11T14:44:46;7.20;;;1.40;;
60430;SDS011;46285;45.122;20.726;2022-08-11T14:47:36;5.30;;;1.30;;
60430;SDS011;46285;45.122;20.726;2022-08-11T14:50:03;6.15;;;1.42;;
60430;SDS011;46285;45.122;20.726;2022-08-11T14:52:30;5.70;;;1.48;;
60430;SDS011;46285;45.122;20.726;2022-08-11T14:54:59;6.70;;;2.13;;
60430;SDS011;46285;45.122;20.726;2022-08-11T14:57:49;12.07;;;1.90;;
60430;SDS011;46285;45.122;20.726;2022-08-11T15:00:17;5.75;;;1.40;;
60430;SDS011;46285;45.122;20.726;2022-08-11T15:02:43;4.93;;;1.50;;
60430;SDS011;46285;45.122;20.726;2022-08-11T15:05:28;6.82;;;1.27;;
60430;SDS011;46285;45.122;20.726;2022-08-11T15:07:55;4.38;;;1.60;;
60430;SDS011;46285;45.122;20.726;2022-08-11T15:10:23;6.32;;;1.45;;
60430;SDS011;46285;45.122;20.726;2022-08-11T15:12:49;4.85;;;1.20;;
60430;SDS011;46285;45.122;20.726;2022-08-11T15:15:16;5.70;;;2.00;;
60430;SDS011;46285;45.122;20.726;2022-08-11T15:18:02;3.78;;;1.48;;
60430;SDS011;46285;45.122;20.726;2022-08-11T15:20:30;3.67;;;1.20;;
60430;SDS011;46285;45.122;20.726;2022-08-11T15:23:15;5.50;;;2.13;;
60430;SDS011;46285;45.122;20.726;2022-08-11T15:26:02;5.13;;;1.50;;
60430;SDS011;46285;45.122;20.726;2022-08-11T15:28:30;5.20;;;1.60;;
60430;SDS011;46285;45.122;20.726;2022-08-11T15:31:17;5.18;;;1.50;;
60430;SDS011;46285;45.122;20.726;2022-08-11T15:34:03;5.45;;;1.23;;
60430;SDS011;46285;45.122;20.726;2022-08-11T15:36:48;6.43;;;0.90;;
60430;SDS011;46285;45.122;20.726;2022-08-11T15:39:35;6.70;;;1.55;;
60430;SDS011;46285;45.122;20.726;2022-08-11T15:42:23;3.70;;;1.10;;
60430;SDS011;46285;45.122;20.726;2022-08-11T15:45:07;6.70;;;1.60;;
60430;SDS011;46285;45.122;20.726;2022-08-11T15:47:57;5.47;;;1.27;;
60430;SDS011;46285;45.122;20.726;2022-08-11T15:50:26;6.45;;;1.60;;
60430;SDS011;46285;45.122;20.726;2022-08-11T15:52:58;5.00;;;1.30;;
60430;SDS011;46285;45.122;20.726;2022-08-11T15:55:25;4.43;;;1.42;;
60430;SDS011;46285;45.122;20.726;2022-08-11T15:57:54;4.78;;;1.13;;
60430;SDS011;46285;45.122;20.726;2022-08-11T16:00:39;5.15;;;1.30;;
60430;SDS011;46285;45.122;20.726;2022-08-11T16:03:25;4.25;;;1.27;;
60430;SDS011;46285;45.122;20.726;2022-08-11T16:06:11;4.82;;;1.42;;
60430;SDS011;46285;45.122;20.726;2022-08-11T16:08:39;6.13;;;1.60;;
60430;SDS011;46285;45.122;20.726;2022-08-11T16:11:07;6.20;;;1.30;;
60430;SDS011;46285;45.122;20.726;2022-08-11T16:13:34;6.43;;;1.40;;
60430;SDS011;46285;45.122;20.726;2022-08-11T16:16:01;6.30;;;1.52;;
60430;SDS011;46285;45.122;20.726;2022-08-11T16:18:51;7.75;;;1.30;;
60430;SDS011;46285;45.122;20.726;2022-08-11T16:21:21;6.10;;;1.05;;
60430;SDS011;46285;45.122;20.726;2022-08-11T16:23:49;7.55;;;1.60;;
60430;SDS011;46285;45.122;20.726;2022-08-11T16:26:18;6.47;;;1.75;;
60430;SDS011;46285;45.122;20.726;2022-08-11T16:28:47;3.90;;;1.35;;
60430;SDS011;46285;45.122;20.726;2022-08-11T16:31:14;7.47;;;1.50;;
60430;SDS011;46285;45.122;20.726;2022-08-11T16:33:40;3.30;;;1.30;;
60430;SDS011;46285;45.122;20.726;2022-08-11T16:38:52;8.23;;;1.50;;
60430;SDS011;46285;45.122;20.726;2022-08-11T16:41:20;4.75;;;1.40;;
60430;SDS011;46285;45.122;20.726;2022-08-11T16:44:05;4.65;;;1.55;;
60430;SDS011;46285;45.122;20.726;2022-08-11T16:47:12;7.65;;;1.65;;
60430;SDS011;46285;45.122;20.726;2022-08-11T16:49:43;4.35;;;1.23;;
60430;SDS011;46285;45.122;20.726;2022-08-11T16:52:13;8.25;;;1.80;;
60430;SDS011;46285;45.122;20.726;2022-08-11T16:54:41;14.57;;;1.75;;
60430;SDS011;46285;45.122;20.726;2022-08-11T16:57:11;5.75;;;1.55;;
60430;SDS011;46285;45.122;20.726;2022-08-11T16:59:57;4.15;;;1.30;;
60430;SDS011;46285;45.122;20.726;2022-08-11T17:02:26;6.57;;;1.50;;
60430;SDS011;46285;45.122;20.726;2022-08-11T17:05:16;12.23;;;2.70;;
60430;SDS011;46285;45.122;20.726;2022-08-11T17:08:02;7.70;;;1.83;;
60430;SDS011;46285;45.122;20.726;2022-08-11T17:10:49;13.43;;;2.00;;
60430;SDS011;46285;45.122;20.726;2022-08-11T17:13:40;5.40;;;1.50;;
60430;SDS011;46285;45.122;20.726;2022-08-11T17:16:09;5.70;;;1.75;;
60430;SDS011;46285;45.122;20.726;2022-08-11T17:21:13;11.93;;;1.83;;
60430;SDS011;46285;45.122;20.726;2022-08-11T17:23:40;5.15;;;1.60;;
60430;SDS011;46285;45.122;20.726;2022-08-11T17:26:20;9.15;;;1.50;;
60430;SDS011;46285;45.122;20.726;2022-08-11T17:28:47;10.50;;;2.00;;
60430;SDS011;46285;45.122;20.726;2022-08-11T17:31:18;12.75;;;1.85;;
60430;SDS011;46285;45.122;20.726;2022-08-11T17:34:05;12.75;;;2.00;;
60430;SDS011;46285;45.122;20.726;2022-08-11T17:36:52;9.18;;;1.80;;
60430;SDS011;46285;45.122;20.726;2022-08-11T17:39:18;12.45;;;2.15;;
60430;SDS011;46285;45.122;20.726;2022-08-11T17:41:45;11.27;;;2.42;;
60430;SDS011;46285;45.122;20.726;2022-08-11T17:44:44;13.80;;;2.42;;
60430;SDS011;46285;45.122;20.726;2022-08-11T17:47:29;13.15;;;1.75;;
60430;SDS011;46285;45.122;20.726;2022-08-11T17:50:14;14.88;;;3.42;;
60430;SDS011;46285;45.122;20.726;2022-08-11T17:52:41;14.60;;;2.85;;
60430;SDS011;46285;45.122;20.726;2022-08-11T17:55:27;12.40;;;2.35;;
60430;SDS011;46285;45.122;20.726;2022-08-11T17:58:12;16.80;;;3.17;;
60430;SDS011;46285;45.122;20.726;2022-08-11T18:00:59;14.33;;;1.90;;
60430;SDS011;46285;45.122;20.726;2022-08-11T18:03:26;7.95;;;2.05;;
60430;SDS011;46285;45.122;20.726;2022-08-11T18:06:01;12.30;;;2.65;;
60430;SDS011;46285;45.122;20.726;2022-08-11T18:08:29;8.80;;;2.25;;
60430;SDS011;46285;45.122;20.726;2022-08-11T18:11:15;9.05;;;2.20;;
60430;SDS011;46285;45.122;20.726;2022-08-11T18:14:04;11.00;;;2.05;;
60430;SDS011;46285;45.122;20.726;2022-08-11T18:16:50;11.20;;;3.10;;
60430;SDS011;46285;45.122;20.726;2022-08-11T18:19:34;10.15;;;2.38;;
60430;SDS011;46285;45.122;20.726;2022-08-11T18:22:21;15.27;;;2.40;;
60430;SDS011;46285;45.122;20.726;2022-08-11T18:25:08;12.65;;;2.20;;
60430;SDS011;46285;45.122;20.726;2022-08-11T18:27:53;13.75;;;3.22;;
60430;SDS011;46285;45.122;20.726;2022-08-11T18:30:40;10.27;;;2.28;;
60430;SDS011;46285;45.122;20.726;2022-08-11T18:33:27;9.98;;;3.03;;
60430;SDS011;46285;45.122;20.726;2022-08-11T18:36:14;8.50;;;2.45;;
60430;SDS011;46285;45.122;20.726;2022-08-11T18:39:00;10.13;;;2.55;;
60430;SDS011;46285;45.122;20.726;2022-08-11T18:41:46;11.55;;;2.67;;